createdAt,value
2022-08-07T00:00:40.214Z,3.97
2022-08-07T00:03:10.318Z,4.78
2022-08-07T00:05:39.156Z,4.20
2022-08-07T00:08:08.062Z,5.03
2022-08-07T00:10:48.024Z,15.10
2022-08-07T00:13:26.793Z,21.92
2022-08-07T00:15:55.649Z,15.23
2022-08-07T00:18:25.728Z,12.63
2022-08-07T00:20:55.197Z,7.85
2022-08-07T00:23:25.290Z,5.40
2022-08-07T00:26:02.807Z,5.88
2022-08-07T00:28:45.934Z,6.70
2022-08-07T00:31:37.679Z,4.38
2022-08-07T00:34:09.755Z,4.18
2022-08-07T00:36:42.658Z,4.63
2022-08-07T00:39:16.125Z,4.38
2022-08-07T00:41:53.277Z,5.93
2022-08-07T00:44:22.776Z,5.10
2022-08-07T00:46:55.634Z,6.93
2022-08-07T00:50:16.815Z,4.65
2022-08-07T00:52:12.588Z,5.13
2022-08-07T00:54:41.083Z,5.07
2022-08-07T00:57:12.265Z,4.20
2022-08-07T00:59:40.805Z,5.25
2022-08-07T01:02:20.313Z,4.50
2022-08-07T01:04:58.686Z,4.78
2022-08-07T01:07:28.465Z,7.15
2022-08-07T01:10:06.602Z,5.32
2022-08-07T01:12:54.149Z,5.70
2022-08-07T01:15:35.918Z,5.43
2022-08-07T01:18:16.976Z,7.00
2022-08-07T01:20:59.209Z,6.28
2022-08-07T01:23:37.982Z,4.57
2022-08-07T01:26:12.060Z,6.55
2022-08-07T01:28:41.109Z,4.70
2022-08-07T01:31:15.502Z,5.90
2022-08-07T01:33:55.251Z,6.20
2022-08-07T01:36:34.066Z,6.57
2022-08-07T01:39:10.247Z,8.20
2022-08-07T01:41:39.086Z,7.00
2022-08-07T01:44:09.391Z,6.43
2022-08-07T01:46:38.996Z,7.97
2022-08-07T01:49:08.459Z,9.75
2022-08-07T01:52:04.166Z,6.85
2022-08-07T01:54:36.343Z,6.10
2022-08-07T01:57:08.364Z,8.18
2022-08-07T01:59:44.084Z,8.25
2022-08-07T02:03:11.455Z,8.75
2022-08-07T02:05:08.057Z,8.00
2022-08-07T02:07:50.591Z,7.78
2022-08-07T02:10:26.955Z,6.68
2022-08-07T02:12:57.101Z,7.35
2022-08-07T02:15:29.339Z,7.18
2022-08-07T02:17:59.929Z,8.13
2022-08-07T02:20:28.765Z,6.22
2022-08-07T02:22:59.731Z,6.63
2022-08-07T02:26:10.658Z,5.18
2022-08-07T02:30:56.697Z,5.32
2022-08-07T02:33:42.019Z,5.32
2022-08-07T02:36:30.214Z,5.72
2022-08-07T02:39:01.833Z,8.07
2022-08-07T02:41:40.094Z,9.52
2022-08-07T02:44:16.771Z,8.68
2022-08-07T02:46:52.503Z,6.35
2022-08-07T02:49:28.641Z,6.32
2022-08-07T02:52:13.036Z,8.35
2022-08-07T02:54:42.903Z,7.55
2022-08-07T02:57:17.413Z,9.45
2022-08-07T02:59:54.799Z,7.55
2022-08-07T03:02:29.595Z,7.95
2022-08-07T03:04:58.014Z,6.93
2022-08-07T03:07:42.931Z,6.25
2022-08-07T03:10:17.042Z,6.35
2022-08-07T03:12:48.154Z,7.78
2022-08-07T03:15:30.286Z,7.80
2022-08-07T03:18:08.291Z,6.68
2022-08-07T03:20:37.323Z,7.65
2022-08-07T03:23:05.897Z,9.95
2022-08-07T03:25:50.766Z,7.82
2022-08-07T03:28:37.479Z,7.95
2022-08-07T03:33:57.578Z,7.85
2022-08-07T03:36:27.785Z,8.25
2022-08-07T03:39:05.424Z,8.43
2022-08-07T03:41:42.126Z,8.80
2022-08-07T03:44:17.110Z,9.23
2022-08-07T03:47:11.274Z,7.75
2022-08-07T03:49:40.029Z,9.20
2022-08-07T03:52:22.952Z,8.90
2022-08-07T03:54:57.450Z,9.35
2022-08-07T03:59:04.868Z,7.97
2022-08-07T04:00:30.560Z,7.97
2022-08-07T04:03:03.946Z,9.98
2022-08-07T04:05:40.292Z,7.53
2022-08-07T04:08:11.572Z,10.30
2022-08-07T04:10:42.349Z,9.75
2022-08-07T04:13:15.383Z,8.30
2022-08-07T04:15:45.753Z,7.38
2022-08-07T04:18:58.697Z,10.68
2022-08-07T04:21:07.424Z,9.68
2022-08-07T04:23:43.472Z,8.98
2022-08-07T04:26:25.174Z,7.38
2022-08-07T04:28:58.577Z,6.22
2022-08-07T04:31:38.787Z,6.25
2022-08-07T04:34:24.087Z,6.63
2022-08-07T04:37:01.370Z,5.80
2022-08-07T04:39:35.920Z,6.80
2022-08-07T04:42:04.998Z,7.55
2022-08-07T04:44:34.516Z,6.60
2022-08-07T04:47:09.642Z,8.30
2022-08-07T04:49:57.398Z,7.47
2022-08-07T04:52:33.763Z,8.45
2022-08-07T04:55:15.000Z,9.05
2022-08-07T04:58:10.817Z,7.82
2022-08-07T05:00:53.103Z,9.05
2022-08-07T05:03:59.957Z,9.10
2022-08-07T05:06:20.434Z,9.50
2022-08-07T05:09:01.654Z,7.57
2022-08-07T05:11:56.862Z,8.63
2022-08-07T05:14:56.077Z,6.72
2022-08-07T05:17:51.466Z,6.95
2022-08-07T05:20:10.000Z,8.35
2022-08-07T05:22:40.124Z,6.85
2022-08-07T05:25:11.696Z,6.80
2022-08-07T05:28:03.337Z,6.35
2022-08-07T05:30:48.555Z,6.65
2022-08-07T05:33:17.975Z,5.30
2022-08-07T05:35:48.209Z,7.07
2022-08-07T05:39:00.907Z,5.13
2022-08-07T05:41:14.290Z,5.97
2022-08-07T05:44:07.671Z,5.65
2022-08-07T05:46:34.924Z,6.18
2022-08-07T05:49:12.172Z,5.75
2022-08-07T05:51:43.036Z,5.57
2022-08-07T05:54:31.007Z,6.18
2022-08-07T05:57:04.525Z,5.20
2022-08-07T05:59:46.546Z,5.40
2022-08-07T06:02:28.753Z,5.65
2022-08-07T06:05:00.738Z,5.07
2022-08-07T06:08:09.002Z,5.80
2022-08-07T06:10:19.092Z,7.47
2022-08-07T06:12:49.023Z,5.20
2022-08-07T06:15:20.072Z,6.47
2022-08-07T06:17:53.606Z,5.78
2022-08-07T06:20:31.998Z,6.18
2022-08-07T06:23:46.068Z,7.75
2022-08-07T06:26:03.767Z,3.85
2022-08-07T06:28:32.375Z,6.00
2022-08-07T06:31:01.435Z,4.57
2022-08-07T06:36:06.889Z,5.28
2022-08-07T06:38:59.352Z,4.72
2022-08-07T06:42:00.940Z,4.50
2022-08-07T06:44:31.076Z,3.85
2022-08-07T06:47:10.222Z,5.47
2022-08-07T06:49:50.990Z,4.47
2022-08-07T06:52:31.765Z,5.45
2022-08-07T06:55:32.248Z,5.72
2022-08-07T06:58:02.060Z,4.80
2022-08-07T07:00:34.944Z,4.15
2022-08-07T07:03:08.873Z,3.30
2022-08-07T07:06:03.766Z,6.07
2022-08-07T07:08:28.749Z,4.05
2022-08-07T07:10:58.956Z,3.88
2022-08-07T07:13:56.131Z,4.30
2022-08-07T07:16:23.588Z,3.85
2022-08-07T07:19:00.416Z,5.60
2022-08-07T07:22:12.268Z,3.72
2022-08-07T07:24:30.317Z,5.47
2022-08-07T07:27:02.768Z,4.85
2022-08-07T07:29:39.485Z,5.20
2022-08-07T07:32:26.526Z,4.28
2022-08-07T07:34:57.979Z,3.05
2022-08-07T07:37:47.215Z,6.22
2022-08-07T07:40:18.102Z,3.78
2022-08-07T07:42:53.748Z,3.03
2022-08-07T07:46:35.781Z,5.20
2022-08-07T07:48:35.116Z,4.30
2022-08-07T07:51:03.312Z,3.65
2022-08-07T07:53:52.021Z,5.13
2022-08-07T07:56:30.266Z,4.18
2022-08-07T07:59:02.096Z,4.68
2022-08-07T08:02:02.047Z,4.03
2022-08-07T08:04:25.556Z,5.57
2022-08-07T08:06:54.860Z,4.57
2022-08-07T08:09:29.631Z,5.57
2022-08-07T08:12:01.913Z,9.05
2022-08-07T08:14:39.828Z,4.53
2022-08-07T08:17:55.497Z,4.28
2022-08-07T08:20:18.824Z,4.95
2022-08-07T08:23:09.337Z,5.10
2022-08-07T08:25:57.269Z,4.50
2022-08-07T08:28:37.889Z,7.18
2022-08-07T08:33:49.459Z,5.18
2022-08-07T08:36:29.588Z,3.55
2022-08-07T08:39:01.892Z,4.70
2022-08-07T08:41:57.781Z,5.85
2022-08-07T08:44:31.309Z,4.63
2022-08-07T08:47:07.676Z,3.65
2022-08-07T08:50:02.224Z,3.50
2022-08-07T08:52:40.793Z,3.63
2022-08-07T08:55:55.184Z,3.30
2022-08-07T08:58:20.311Z,4.05
2022-08-07T09:00:57.642Z,8.13
2022-08-07T09:03:49.503Z,7.90
2022-08-07T09:06:31.016Z,6.68
2022-08-07T09:09:09.453Z,6.30
2022-08-07T09:11:53.219Z,6.25
2022-08-07T09:14:32.636Z,4.38
2022-08-07T09:17:04.278Z,4.90
2022-08-07T09:19:52.601Z,7.82
2022-08-07T09:24:30.559Z,5.18
2022-08-07T09:25:26.374Z,5.43
2022-08-07T09:28:02.878Z,7.53
2022-08-07T09:30:44.257Z,6.63
2022-08-07T09:33:52.499Z,5.85
2022-08-07T09:36:27.003Z,4.97
2022-08-07T09:39:06.272Z,5.68
2022-08-07T09:42:05.648Z,4.50
2022-08-07T09:44:58.764Z,4.50
2022-08-07T09:47:58.943Z,2.83
2022-08-07T09:50:37.800Z,3.75
2022-08-07T09:53:12.709Z,4.85
2022-08-07T09:56:03.674Z,4.70
2022-08-07T09:59:07.799Z,4.82
2022-08-07T10:02:00.107Z,4.38
2022-08-07T10:04:38.149Z,3.10
2022-08-07T10:07:26.180Z,5.10
2022-08-07T10:10:21.965Z,4.30
2022-08-07T10:13:00.838Z,3.17
2022-08-07T10:18:27.550Z,5.47
2022-08-07T10:21:19.837Z,2.97
2022-08-07T10:24:18.708Z,4.47
2022-08-07T10:27:10.462Z,3.72
2022-08-07T10:29:53.262Z,3.83
2022-08-07T10:32:51.111Z,2.95
2022-08-07T10:35:56.281Z,2.15
2022-08-07T10:38:36.003Z,4.07
2022-08-07T10:41:51.790Z,2.65
2022-08-07T10:44:19.549Z,3.35
2022-08-07T10:47:14.107Z,2.75
2022-08-07T10:49:50.911Z,2.67
2022-08-07T10:52:33.637Z,4.82
2022-08-07T10:55:26.784Z,5.32
2022-08-07T10:58:12.088Z,3.08
2022-08-07T11:00:50.189Z,2.97
2022-08-07T11:03:37.720Z,2.72
2022-08-07T11:06:18.192Z,2.55
2022-08-07T11:08:51.852Z,2.58
2022-08-07T11:11:25.933Z,1.40
2022-08-07T11:14:44.103Z,1.73
2022-08-07T11:16:56.852Z,2.30
2022-08-07T11:19:34.548Z,1.60
2022-08-07T11:22:18.756Z,1.27
2022-08-07T11:24:52.471Z,2.75
2022-08-07T11:27:33.435Z,4.43
2022-08-07T11:30:18.341Z,4.28
2022-08-07T11:32:53.752Z,4.60
2022-08-07T11:35:25.219Z,2.83
2022-08-07T11:38:12.416Z,5.20
2022-08-07T11:40:50.732Z,3.90
2022-08-07T11:43:41.526Z,2.03
2022-08-07T11:46:19.745Z,3.38
2022-08-07T11:50:11.484Z,3.50
2022-08-07T11:52:35.525Z,4.13
2022-08-07T11:55:18.730Z,3.88
2022-08-07T11:58:05.183Z,2.42
2022-08-07T12:01:02.481Z,3.22
2022-08-07T12:03:48.884Z,2.78
2022-08-07T12:06:37.358Z,3.05
2022-08-07T12:09:16.555Z,4.15
2022-08-07T12:12:10.471Z,1.73
2022-08-07T12:14:55.747Z,6.22
2022-08-07T12:17:58.443Z,3.22
2022-08-07T12:20:32.496Z,1.80
2022-08-07T12:23:37.187Z,2.33
2022-08-07T12:26:23.403Z,4.47
2022-08-07T12:29:04.910Z,4.65
2022-08-07T12:31:52.920Z,2.40
2022-08-07T12:34:29.757Z,3.35
2022-08-07T12:36:59.445Z,3.55
2022-08-07T12:39:44.302Z,3.03
2022-08-07T12:42:27.889Z,3.83
2022-08-07T12:44:59.638Z,3.42
2022-08-07T12:47:41.848Z,2.72
2022-08-07T12:50:38.420Z,2.90
2022-08-07T12:53:18.062Z,3.83
2022-08-07T12:56:02.437Z,2.05
2022-08-07T12:58:35.840Z,4.55
2022-08-07T13:01:09.613Z,3.15
2022-08-07T13:04:02.505Z,2.85
2022-08-07T13:07:01.186Z,3.95
2022-08-07T13:10:20.930Z,2.53
2022-08-07T13:12:47.550Z,3.47
2022-08-07T13:15:29.569Z,4.68
2022-08-07T13:18:11.580Z,1.48
2022-08-07T13:21:03.817Z,4.38
2022-08-07T13:24:01.138Z,4.50
2022-08-07T13:26:37.055Z,2.38
2022-08-07T13:29:13.176Z,3.58
2022-08-07T13:31:46.120Z,3.70
2022-08-07T13:34:36.946Z,2.72
2022-08-07T13:37:10.800Z,2.15
2022-08-07T13:40:36.127Z,3.90
2022-08-07T13:42:45.258Z,3.00
2022-08-07T13:46:07.095Z,2.00
2022-08-07T13:48:08.787Z,3.28
2022-08-07T13:50:45.013Z,4.50
2022-08-07T13:53:35.928Z,4.15
2022-08-07T13:56:35.831Z,2.53
2022-08-07T13:59:15.717Z,1.58
2022-08-07T14:02:04.138Z,1.30
2022-08-07T14:04:35.619Z,2.78
2022-08-07T14:07:09.551Z,2.20
2022-08-07T14:10:02.249Z,4.88
2022-08-07T14:12:41.662Z,5.32
2022-08-07T14:15:23.683Z,3.83
2022-08-07T14:18:23.990Z,1.58
2022-08-07T14:20:48.955Z,1.45
2022-08-07T14:23:59.148Z,3.35
2022-08-07T14:26:28.125Z,3.35
2022-08-07T14:29:07.286Z,3.00
2022-08-07T14:31:55.997Z,3.47
2022-08-07T14:37:18.869Z,3.15
2022-08-07T14:40:17.847Z,2.22
2022-08-07T14:43:00.955Z,2.30
2022-08-07T14:45:48.675Z,3.05
2022-08-07T14:51:15.856Z,5.10
2022-08-07T14:54:08.850Z,4.10
2022-08-07T14:56:35.266Z,1.20
2022-08-07T14:59:13.925Z,2.47
2022-08-07T15:04:28.862Z,2.53
2022-08-07T15:15:34.256Z,2.35
2022-08-07T15:18:14.535Z,3.08
2022-08-07T15:20:59.834Z,2.50
2022-08-07T15:25:14.759Z,2.97
2022-08-07T15:26:33.631Z,2.70
2022-08-07T15:30:04.495Z,1.95
2022-08-07T15:32:01.161Z,3.63
2022-08-07T15:34:35.309Z,2.85
2022-08-07T15:37:06.878Z,4.47
2022-08-07T15:42:51.751Z,2.10
2022-08-07T15:45:56.466Z,2.83
2022-08-07T15:48:26.682Z,1.98
2022-08-07T15:51:09.204Z,2.05
2022-08-07T15:53:53.269Z,3.80
2022-08-07T15:56:33.205Z,2.40
2022-08-07T15:59:05.691Z,2.00
2022-08-07T16:01:38.536Z,2.72
2022-08-07T16:04:14.789Z,2.20
2022-08-07T16:06:46.642Z,1.63
2022-08-07T16:09:22.791Z,2.30
2022-08-07T16:12:04.821Z,3.95
2022-08-07T16:14:55.348Z,4.18
2022-08-07T16:18:02.337Z,2.67
2022-08-07T16:20:55.204Z,5.00
2022-08-07T16:23:58.509Z,3.05
2022-08-07T16:26:36.506Z,3.35
2022-08-07T16:30:07.247Z,1.52
2022-08-07T16:32:07.552Z,3.25
2022-08-07T16:34:58.473Z,1.65
2022-08-07T16:38:06.696Z,2.10
2022-08-07T16:41:11.593Z,2.15
2022-08-07T16:44:46.046Z,4.35
2022-08-07T16:47:52.921Z,4.50
2022-08-07T16:50:52.736Z,4.00
2022-08-07T16:54:06.172Z,3.47
2022-08-07T16:56:53.479Z,3.53
2022-08-07T16:59:46.055Z,3.75
2022-08-07T17:02:53.112Z,2.63
2022-08-07T17:06:28.176Z,3.03
2022-08-07T17:09:09.442Z,1.83
2022-08-07T17:12:04.375Z,2.35
2022-08-07T17:14:25.211Z,1.70
2022-08-07T17:16:57.724Z,1.33
2022-08-07T17:20:01.936Z,2.20
2022-08-07T17:22:37.814Z,3.20
2022-08-07T17:25:15.573Z,1.98
2022-08-07T17:27:56.019Z,1.83
2022-08-07T17:30:26.653Z,2.47
2022-08-07T17:35:54.756Z,2.28
2022-08-07T17:38:34.303Z,1.83
2022-08-07T17:42:01.093Z,2.30
2022-08-07T17:44:07.403Z,2.70
2022-08-07T17:46:43.541Z,4.13
2022-08-07T17:49:22.983Z,2.13
2022-08-07T17:52:00.453Z,2.95
2022-08-07T17:54:40.065Z,1.63
2022-08-07T17:57:32.082Z,1.90
2022-08-07T18:00:32.894Z,2.45
2022-08-07T18:03:09.566Z,2.67
2022-08-07T18:06:02.357Z,1.67
2022-08-07T18:08:34.337Z,3.13
2022-08-07T18:12:07.414Z,2.17
2022-08-07T18:14:01.636Z,2.22
2022-08-07T18:16:34.312Z,3.33
2022-08-07T18:21:08.044Z,2.13
2022-08-07T18:22:14.887Z,3.33
2022-08-07T18:24:47.109Z,2.50
2022-08-07T18:27:58.173Z,2.22
2022-08-07T18:30:36.626Z,2.10
2022-08-07T18:33:30.506Z,3.63
2022-08-07T18:36:08.152Z,2.47
2022-08-07T18:38:58.986Z,2.05
2022-08-07T18:41:45.941Z,4.53
2022-08-07T18:44:30.841Z,3.90
2022-08-07T18:47:07.394Z,3.15
2022-08-07T18:50:19.122Z,3.13
2022-08-07T18:52:56.979Z,2.22
2022-08-07T18:55:43.136Z,1.83
2022-08-07T18:58:30.803Z,2.97
2022-08-07T19:01:07.099Z,1.90
2022-08-07T19:04:00.421Z,2.15
2022-08-07T19:06:41.148Z,3.45
2022-08-07T19:09:57.741Z,1.65
2022-08-07T19:12:19.181Z,2.88
2022-08-07T19:16:03.819Z,1.88
2022-08-07T19:18:15.715Z,5.20
2022-08-07T19:21:08.428Z,2.30
2022-08-07T19:23:58.395Z,2.40
2022-08-07T19:26:55.494Z,2.88
2022-08-07T19:31:04.456Z,2.70
2022-08-07T19:32:28.968Z,2.92
2022-08-07T19:35:05.134Z,2.70
2022-08-07T19:37:56.447Z,2.10
2022-08-07T19:40:31.151Z,2.53
2022-08-07T19:43:02.658Z,4.80
2022-08-07T19:46:09.298Z,2.17
2022-08-07T19:48:26.786Z,2.47
2022-08-07T19:50:58.111Z,2.63
2022-08-07T19:54:32.248Z,2.00
2022-08-07T19:58:00.891Z,3.78
2022-08-07T19:59:11.893Z,2.17
2022-08-07T20:01:57.371Z,4.72
2022-08-07T20:04:32.177Z,3.50
2022-08-07T20:07:10.128Z,5.50
2022-08-07T20:10:33.906Z,3.95
2022-08-07T20:12:34.874Z,3.45
2022-08-07T20:15:05.301Z,3.10
2022-08-07T20:17:45.087Z,2.17
2022-08-07T20:20:30.627Z,3.20
2022-08-07T20:23:10.709Z,2.83
2022-08-07T20:25:52.968Z,4.05
2022-08-07T20:28:29.582Z,3.15
2022-08-07T20:30:58.542Z,2.45
2022-08-07T20:33:37.674Z,4.05
2022-08-07T20:36:08.272Z,3.85
2022-08-07T20:38:59.826Z,2.75
2022-08-07T20:41:33.859Z,4.05
2022-08-07T20:44:03.398Z,2.10
2022-08-07T20:46:44.151Z,4.05
2022-08-07T20:52:06.633Z,4.53
2022-08-07T20:54:53.326Z,4.03
2022-08-07T20:57:25.158Z,4.35
2022-08-07T21:00:07.010Z,4.35
2022-08-07T21:02:57.783Z,3.15
2022-08-07T21:05:51.019Z,3.17
2022-08-07T21:11:12.440Z,3.78
2022-08-07T21:14:16.835Z,2.90
2022-08-07T21:16:56.404Z,8.38
2022-08-07T21:19:32.006Z,9.18
2022-08-07T21:22:19.477Z,4.18
2022-08-07T21:25:04.758Z,6.28
2022-08-07T21:28:02.218Z,5.28
2022-08-07T21:30:41.817Z,4.80
2022-08-07T21:33:16.549Z,4.20
2022-08-07T21:36:04.176Z,4.68
2022-08-07T21:38:45.405Z,3.42
2022-08-07T21:41:22.912Z,4.82
2022-08-07T21:43:58.525Z,4.93
2022-08-07T21:46:34.584Z,3.83
2022-08-07T21:49:15.005Z,3.90
2022-08-07T21:51:55.680Z,5.43
2022-08-07T21:54:30.872Z,3.10
2022-08-07T21:57:30.951Z,2.20
2022-08-07T22:00:09.214Z,3.70
2022-08-07T22:02:56.760Z,4.00
2022-08-07T22:05:46.098Z,5.18
2022-08-07T22:08:19.696Z,4.10
2022-08-07T22:10:50.966Z,5.25
2022-08-07T22:13:24.330Z,7.50
2022-08-07T22:16:45.609Z,9.35
2022-08-07T22:19:07.463Z,8.88
2022-08-07T22:22:05.410Z,6.45
2022-08-07T22:24:35.781Z,9.63
2022-08-07T22:27:10.402Z,9.15
2022-08-07T22:29:50.209Z,5.78
2022-08-07T22:32:25.867Z,7.10
2022-08-07T22:34:55.143Z,9.35
2022-08-07T22:38:04.364Z,7.15
2022-08-07T22:40:24.686Z,5.20
2022-08-07T22:42:55.463Z,5.53
2022-08-07T22:46:21.241Z,5.43
2022-08-07T22:48:55.310Z,4.90
2022-08-07T22:51:44.118Z,9.43
2022-08-07T22:54:49.185Z,4.18
2022-08-07T22:57:41.112Z,6.47
2022-08-07T23:00:16.357Z,6.50
2022-08-07T23:02:58.841Z,7.68
2022-08-07T23:06:14.999Z,8.02
2022-08-07T23:10:04.248Z,5.50
2022-08-07T23:12:07.477Z,6.43
2022-08-07T23:14:48.480Z,5.80
2022-08-07T23:17:45.186Z,3.60
2022-08-07T23:20:53.143Z,3.95
2022-08-07T23:24:05.740Z,5.63
2022-08-07T23:26:23.485Z,2.63
2022-08-07T23:29:03.199Z,2.53
2022-08-07T23:34:23.455Z,3.03
2022-08-07T23:35:07.414Z,4.35
2022-08-07T23:38:09.371Z,4.82
2022-08-07T23:40:47.024Z,2.47
2022-08-07T23:43:45.051Z,2.97
2022-08-07T23:46:33.851Z,3.47
2022-08-07T23:49:20.700Z,2.92
2022-08-07T23:52:59.792Z,3.90
2022-08-07T23:54:52.071Z,2.90
2022-08-07T23:57:27.731Z,1.90
